Terminal Aerodrome Forecast
Issued by NWS

Current Version | Previous Version | Text Only | Print | Product List | Glossary On
Versions: 1 2 3 4 5 6 7 8 9 10 11 12 13 14
000
FTUS46 KMFR 271100
TAFLMT
TAF
KLMT 271139Z 2712/2812 VRB03KT P6SM SKC
     FM272100 28006KT P6SM SKC
     FM272300 30008KT P6SM SKC
     FM280400 31004KT P6SM SKC=

USA.gov is the U.S. government's official web portal to all federal, state and local government web resources and services.